Time;durP1;ratioP1;P1;durP2;ratioP2;P2;SDS_P1;SDS_P2;PMS_P1;PMS_P2;Temp;Humidity;BMP_temperature;BMP_pressure;BME280_temperature;BME280_humidity;BME280_pressure;Samples;Min_cycle;Max_cycle;Signal;HPM_P1;HPM_P2
2023/10/05 00:00:32;;;;;;;;;;;;;;;17.33;43.13;100404.09;3171399;28;19934;-66
2023/10/05 00:02:08;;;;;;;;;;;;;;;17.27;43.36;100410.59;3165163;28;20324;-67
2023/10/05 00:03:43;;;;;;;;;;;;;;;17.20;43.52;100406.66;3171540;28;20106;-65
2023/10/05 00:05:15;;;;;;;;;;;;;;;17.18;43.58;100405.91;3168312;28;20849;-64
2023/10/05 00:06:48;;;;;;;;;;;;;;;17.18;43.49;100408.53;3168962;28;19928;-65
2023/10/05 00:08:20;;;;;;;;;;;;;;;17.19;43.40;100407.63;3171194;28;19942;-65
2023/10/05 00:09:51;;;;;;;;;;;;;;;17.17;43.52;100412.97;3171828;28;19923;-64
2023/10/05 00:11:23;;;;;;;;;;;;;;;17.16;43.51;100411.28;3170987;28;20412;-64
2023/10/05 00:12:58;;;;;;;;;;;;;;;17.17;43.59;100409.50;3170802;28;19977;-64
2023/10/05 00:14:29;;;;;;;;;;;;;;;17.17;43.55;100409.50;3171231;28;20449;-64
2023/10/05 00:16:02;;;;;;;;;;;;;;;17.16;43.41;100413.06;3171253;28;20030;-64
2023/10/05 00:17:36;;;;;;;;;;;;;;;17.17;43.44;100414.75;3170986;28;19952;-64
2023/10/05 00:19:10;;;;;;;;;;;;;;;17.14;43.73;100412.31;3170649;28;19924;-64
2023/10/05 00:20:42;;;;;;;;;;;;;;;17.12;43.59;100414.19;3170999;28;19938;-64
2023/10/05 00:22:13;;;;;;;;;;;;;;;17.08;43.52;100410.91;3168701;28;19924;-64
2023/10/05 00:23:44;;;;;;;;;;;;;;;17.08;43.87;100412.69;3159420;28;19931;-65
2023/10/05 00:25:17;;;;;;;;;;;;;;;17.07;43.87;100411.88;3158915;28;20579;-64
2023/10/05 00:26:49;;;;;;;;;;;;;;;17.05;43.79;100411.09;3169627;28;19928;-64
2023/10/05 00:28:24;;;;;;;;;;;;;;;17.04;43.79;100410.25;3171115;28;19932;-64
2023/10/05 00:29:57;;;;;;;;;;;;;;;17.03;43.66;100413.81;3170864;28;19943;-64
2023/10/05 00:31:28;;;;;;;;;;;;;;;17.01;43.76;100407.81;3170553;28;19928;-63
2023/10/05 00:33:04;;;;;;;;;;;;;;;17.00;43.81;100405.28;3171217;28;20380;-63
2023/10/05 00:34:36;;;;;;;;;;;;;;;16.99;43.63;100406.22;3171009;28;19930;-64
2023/10/05 00:36:06;;;;;;;;;;;;;;;16.97;43.99;100413.38;3170815;28;20457;-63
2023/10/05 00:37:38;;;;;;;;;;;;;;;16.93;43.97;100417.97;3171137;28;19924;-64
2023/10/05 00:39:09;;;;;;;;;;;;;;;16.86;44.09;100419.31;3170968;28;20403;-63
2023/10/05 00:40:55;;;;;;;;;;;;;;;16.77;44.54;100410.19;3170391;28;19924;-64
2023/10/05 00:42:26;;;;;;;;;;;;;;;16.71;44.64;100409.66;3164234;28;19923;-63
2023/10/05 00:43:57;;;;;;;;;;;;;;;16.68;44.67;100415.13;3170726;28;19934;-63
2023/10/05 00:45:31;;;;;;;;;;;;;;;16.64;44.94;100413.63;3170792;28;19935;-62
2023/10/05 00:47:05;;;;;;;;;;;;;;;16.57;45.29;100410.53;3171720;27;20253;-63
2023/10/05 00:48:41;;;;;;;;;;;;;;;16.57;45.09;100413.16;3170961;28;19965;-63
2023/10/05 00:50:13;;;;;;;;;;;;;;;16.58;44.88;100405.16;3170367;28;20018;-62
2023/10/05 00:51:49;;;;;;;;;;;;;;;16.63;44.91;100411.94;3170998;28;19923;-63
2023/10/05 00:53:21;;;;;;;;;;;;;;;16.65;44.74;100410.03;3164123;28;19927;-63
2023/10/05 00:54:56;;;;;;;;;;;;;;;16.62;44.90;100408.44;3170293;28;19924;-61
2023/10/05 00:56:33;;;;;;;;;;;;;;;16.60;45.00;100416.44;3170613;28;19971;-62
2023/10/05 00:58:10;;;;;;;;;;;;;;;16.54;45.11;100413.34;3171026;28;20003;-62
2023/10/05 00:59:41;;;;;;;;;;;;;;;16.52;45.10;100408.16;3171133;28;19935;-62
2023/10/05 01:01:16;;;;;;;;;;;;;;;16.55;44.99;100407.13;3168807;28;19977;-62
2023/10/05 01:03:16;;;;;;;;;;;;;;;16.58;44.84;100410.41;3170632;28;19928;-63
2023/10/05 01:04:53;;;;;;;;;;;;;;;16.63;44.73;100414.56;3170257;28;19936;-62
2023/10/05 01:06:29;;;;;;;;;;;;;;;16.65;44.99;100415.28;3161503;28;20456;-63
2023/10/05 01:08:04;;;;;;;;;;;;;;;16.64;45.03;100413.63;3171054;28;19931;-63
2023/10/05 01:09:54;;;;;;;;;;;;;;;16.63;44.91;100417.19;3170563;28;20065;-63
2023/10/05 01:11:31;;;;;;;;;;;;;;;16.60;44.95;100415.59;3170739;28;19951;-62
2023/10/05 01:13:20;;;;;;;;;;;;;;;16.59;44.86;100417.38;3170357;28;19967;-60
2023/10/05 01:14:52;;;;;;;;;;;;;;;16.58;44.97;100413.03;3170369;28;19974;-61
2023/10/05 01:16:24;;;;;;;;;;;;;;;16.59;44.75;100411.25;3170378;28;19928;-62
2023/10/05 01:17:56;;;;;;;;;;;;;;;16.60;44.74;100415.59;3170530;28;19923;-61
2023/10/05 01:19:26;;;;;;;;;;;;;;;16.59;44.96;100413.88;3170056;28;20318;-62
2023/10/05 01:21:02;;;;;;;;;;;;;;;16.59;45.04;100416.50;3170675;28;19932;-62
2023/10/05 01:22:33;;;;;;;;;;;;;;;16.59;44.84;100412.13;3168525;28;20763;-65
2023/10/05 01:24:07;;;;;;;;;;;;;;;16.62;45.10;100413.69;3165908;28;19931;-62
2023/10/05 01:25:38;;;;;;;;;;;;;;;16.64;44.78;100408.34;3161187;28;20517;-62
2023/10/05 01:27:11;;;;;;;;;;;;;;;16.59;44.91;100406.00;3170465;28;19923;-62
2023/10/05 01:28:42;;;;;;;;;;;;;;;16.60;45.04;100411.16;3170454;28;19932;-63
2023/10/05 01:30:13;;;;;;;;;;;;;;;16.59;45.07;100408.63;3169381;28;19935;-63
2023/10/05 01:31:46;;;;;;;;;;;;;;;16.57;45.02;100408.72;3170246;28;19924;-63
2023/10/05 01:33:17;;;;;;;;;;;;;;;16.55;44.92;100407.97;3170342;28;20262;-64
2023/10/05 01:34:50;;;;;;;;;;;;;;;16.51;45.25;100406.47;3169879;28;20406;-63
2023/10/05 01:36:22;;;;;;;;;;;;;;;16.45;45.15;100406.84;3170342;28;20421;-64
2023/10/05 01:37:54;;;;;;;;;;;;;;;16.37;45.52;100409.06;3170230;28;19935;-63
2023/10/05 01:39:26;;;;;;;;;;;;;;;16.29;45.66;100406.06;3170131;28;19980;-63
2023/10/05 01:40:59;;;;;;;;;;;;;;;16.25;45.66;100409.81;3167690;28;19928;-63
2023/10/05 01:42:30;;;;;;;;;;;;;;;16.20;45.89;100409.22;3163851;28;19928;-63
2023/10/05 01:44:03;;;;;;;;;;;;;;;16.15;45.90;100412.13;3170335;28;20402;-63
2023/10/05 01:45:34;;;;;;;;;;;;;;;16.12;46.08;100407.91;3170205;28;19980;-62
2023/10/05 01:47:06;;;;;;;;;;;;;;;16.11;46.00;100410.59;3170137;28;19924;-63
2023/10/05 01:48:37;;;;;;;;;;;;;;;16.11;45.92;100415.88;3169799;28;20006;-63
2023/10/05 01:50:14;;;;;;;;;;;;;;;16.11;45.80;100418.50;3170255;28;19927;-63
2023/10/05 01:51:47;;;;;;;;;;;;;;;16.08;45.98;100416.88;3170133;28;19990;-63
2023/10/05 01:53:18;;;;;;;;;;;;;;;16.06;45.99;100412.66;3164073;28;19997;-62
2023/10/05 01:54:52;;;;;;;;;;;;;;;16.04;46.01;100418.00;3169316;28;20516;-62
2023/10/05 01:56:22;;;;;;;;;;;;;;;16.06;46.16;100417.91;3170300;28;19923;-62
2023/10/05 01:57:54;;;;;;;;;;;;;;;16.08;45.86;100422.13;3169969;28;19937;-63
2023/10/05 01:59:27;;;;;;;;;;;;;;;16.08;46.11;100416.88;3170131;28;20018;-63
2023/10/05 02:00:57;;;;;;;;;;;;;;;16.09;45.95;100418.59;3168037;28;20384;-63
2023/10/05 02:02:30;;;;;;;;;;;;;;;16.08;46.07;100422.13;3169921;28;19935;-63
2023/10/05 02:04:02;;;;;;;;;;;;;;;16.05;45.86;100417.06;3170060;28;20101;-64
2023/10/05 02:05:33;;;;;;;;;;;;;;;16.14;46.00;100415.69;3164298;28;20018;-63
2023/10/05 02:07:05;;;;;;;;;;;;;;;16.16;45.90;100426.97;3165367;28;19924;-63
2023/10/05 02:08:36;;;;;;;;;;;;;;;16.17;45.89;100428.63;3170159;28;20014;-63
2023/10/05 02:10:11;;;;;;;;;;;;;;;16.18;45.84;100418.97;3170076;28;20018;-63
2023/10/05 02:11:43;;;;;;;;;;;;;;;16.19;46.13;100423.31;3169944;28;20021;-62
2023/10/05 02:13:14;;;;;;;;;;;;;;;16.20;45.93;100423.19;3169974;28;19997;-63
2023/10/05 02:14:46;;;;;;;;;;;;;;;16.20;45.86;100428.47;3169928;28;19932;-63
2023/10/05 02:16:18;;;;;;;;;;;;;;;16.19;45.82;100439.06;3169271;28;20672;-63
2023/10/05 02:17:51;;;;;;;;;;;;;;;16.15;46.00;100431.38;3170151;28;19935;-62
2023/10/05 02:19:22;;;;;;;;;;;;;;;16.11;46.11;100429.84;3169745;28;19931;-62
2023/10/05 02:21:02;;;;;;;;;;;;;;;16.06;46.43;100431.91;3169671;28;20028;-63
2023/10/05 02:22:33;;;;;;;;;;;;;;;16.02;46.44;100433.00;3166978;28;20324;-63
2023/10/05 02:24:10;;;;;;;;;;;;;;;16.00;46.23;100440.16;3162717;28;20410;-64
2023/10/05 02:25:43;;;;;;;;;;;;;;;16.01;46.22;100441.84;3159712;28;20313;-63
2023/10/05 02:27:15;;;;;;;;;;;;;;;16.02;46.41;100443.50;3170074;28;19966;-63
2023/10/05 02:28:46;;;;;;;;;;;;;;;16.01;46.36;100441.00;3169829;28;19924;-64
2023/10/05 02:30:22;;;;;;;;;;;;;;;15.96;46.51;100450.91;3169068;28;19966;-64
2023/10/05 02:32:04;;;;;;;;;;;;;;;15.93;46.54;100446.66;3169968;28;20045;-64
2023/10/05 02:33:37;;;;;;;;;;;;;;;15.90;46.58;100438.97;3157528;28;20007;-63
2023/10/05 02:35:18;;;;;;;;;;;;;;;15.88;46.67;100438.19;3169474;28;19928;-62
2023/10/05 02:36:50;;;;;;;;;;;;;;;15.87;46.87;100452.28;3169685;28;20367;-62
2023/10/05 02:38:22;;;;;;;;;;;;;;;15.90;46.57;100444.22;3169585;28;20007;-62
2023/10/05 02:39:53;;;;;;;;;;;;;;;15.89;46.76;100446.00;3170051;28;19959;-62
2023/10/05 02:41:37;;;;;;;;;;;;;;;15.91;46.71;100443.28;3163651;28;19924;-64
2023/10/05 02:43:09;;;;;;;;;;;;;;;15.92;46.69;100447.63;3170964;28;20389;-64
2023/10/05 02:44:40;;;;;;;;;;;;;;;15.92;46.72;100445.00;3172094;28;19934;-64
2023/10/05 02:46:11;;;;;;;;;;;;;;;15.94;46.83;100440.47;3172032;28;20370;-65
2023/10/05 02:47:43;;;;;;;;;;;;;;;15.94;46.81;100443.09;3172464;28;20014;-65
2023/10/05 02:49:15;;;;;;;;;;;;;;;15.96;46.84;100443.03;3171786;28;19972;-63
2023/10/05 02:50:51;;;;;;;;;;;;;;;15.95;46.81;100444.81;3171882;28;19928;-64
2023/10/05 02:52:22;;;;;;;;;;;;;;;15.93;46.82;100450.13;3171292;28;19927;-66
2023/10/05 02:53:56;;;;;;;;;;;;;;;15.93;46.84;100446.66;3167137;28;20461;-65
2023/10/05 02:55:32;;;;;;;;;;;;;;;15.91;46.95;100441.53;3172244;28;20295;-65
2023/10/05 02:57:07;;;;;;;;;;;;;;;15.92;46.83;100447.63;3171690;28;19924;-65
2023/10/05 02:58:38;;;;;;;;;;;;;;;15.92;46.99;100447.63;3172343;28;19928;-65
2023/10/05 03:00:12;;;;;;;;;;;;;;;15.89;46.83;100437.28;3172026;28;19946;-65
2023/10/05 03:01:43;;;;;;;;;;;;;;;15.95;46.83;100442.19;3170414;28;20306;-65
2023/10/05 03:03:14;;;;;;;;;;;;;;;15.95;46.86;100443.97;3172212;28;20031;-63
2023/10/05 03:04:45;;;;;;;;;;;;;;;15.94;46.70;100448.34;3172280;28;19980;-64
2023/10/05 03:06:17;;;;;;;;;;;;;;;15.91;46.85;100445.91;3161706;28;20681;-63
2023/10/05 03:07:48;;;;;;;;;;;;;;;15.88;46.83;100438.19;3172046;28;20565;-63
2023/10/05 03:09:21;;;;;;;;;;;;;;;15.85;46.85;100441.88;3172206;28;19935;-63
2023/10/05 03:10:52;;;;;;;;;;;;;;;15.85;46.99;100446.25;3166941;28;19932;-63
2023/10/05 03:12:25;;;;;;;;;;;;;;;15.83;47.12;100443.72;3167035;28;19982;-63
2023/10/05 03:13:58;;;;;;;;;;;;;;;15.84;47.04;100447.19;3167063;28;19974;-63
2023/10/05 03:15:30;;;;;;;;;;;;;;;15.83;47.11;100450.75;3166459;28;20831;-63
2023/10/05 03:17:04;;;;;;;;;;;;;;;15.82;47.15;100454.31;3166484;28;19932;-62
2023/10/05 03:18:37;;;;;;;;;;;;;;;15.77;47.26;100451.13;3166547;28;19928;-63
2023/10/05 03:20:09;;;;;;;;;;;;;;;15.74;47.29;100444.25;3166884;28;19996;-63
2023/10/05 03:21:40;;;;;;;;;;;;;;;15.76;47.28;100446.78;3166783;28;19928;-63
2023/10/05 03:23:14;;;;;;;;;;;;;;;15.74;47.16;100444.25;3161241;28;20497;-63
2023/10/05 03:24:44;;;;;;;;;;;;;;;15.72;47.43;100440.00;3162533;28;19996;-62
2023/10/05 03:26:18;;;;;;;;;;;;;;;15.65;47.78;100445.59;3160078;28;19932;-62
2023/10/05 03:27:51;;;;;;;;;;;;;;;15.55;47.96;100439.13;3166771;28;19928;-62
2023/10/05 03:29:21;;;;;;;;;;;;;;;15.48;48.26;100433.38;3166609;28;20343;-62
2023/10/05 03:30:53;;;;;;;;;;;;;;;15.41;48.51;100439.91;3165916;28;19928;-62
2023/10/05 03:32:28;;;;;;;;;;;;;;;15.39;48.59;100443.56;3161390;28;20455;-63
2023/10/05 03:34:00;;;;;;;;;;;;;;;15.37;48.31;100446.25;3166834;28;20359;-63
2023/10/05 03:35:32;;;;;;;;;;;;;;;15.37;48.45;100446.25;3166389;28;20023;-65
2023/10/05 03:37:08;;;;;;;;;;;;;;;15.39;48.26;100449.63;3166628;28;19928;-64
2023/10/05 03:38:39;;;;;;;;;;;;;;;15.42;48.38;100446.00;3166452;28;19950;-65
2023/10/05 03:40:22;;;;;;;;;;;;;;;15.46;48.13;100444.91;3166627;28;19940;-65
2023/10/05 03:41:52;;;;;;;;;;;;;;;15.47;48.19;100451.84;3157288;28;19928;-66
2023/10/05 03:43:27;;;;;;;;;;;;;;;15.45;47.98;100454.56;3166566;28;20540;-65
2023/10/05 03:45:03;;;;;;;;;;;;;;;15.45;47.85;100458.97;3166607;28;20196;-65
2023/10/05 03:46:34;;;;;;;;;;;;;;;15.46;48.16;100451.00;3166420;28;20339;-65
2023/10/05 03:48:06;;;;;;;;;;;;;;;15.45;48.01;100451.09;3157035;28;19935;-65
2023/10/05 03:49:37;;;;;;;;;;;;;;;15.42;48.17;100453.88;3165809;28;19928;-64
2023/10/05 03:51:16;;;;;;;;;;;;;;;15.41;47.88;100449.53;3166107;28;19927;-65
2023/10/05 03:52:46;;;;;;;;;;;;;;;15.40;48.16;100455.72;3163939;28;20064;-65
2023/10/05 03:54:18;;;;;;;;;;;;;;;15.40;47.98;100453.94;3161521;28;20050;-64
2023/10/05 03:55:50;;;;;;;;;;;;;;;15.41;47.98;100455.66;3160764;28;20107;-65
2023/10/05 03:57:21;;;;;;;;;;;;;;;15.41;47.97;100457.41;3164212;28;19927;-65
2023/10/05 03:58:54;;;;;;;;;;;;;;;15.40;47.98;100467.06;3158149;28;20381;-65
2023/10/05 04:00:31;;;;;;;;;;;;;;;15.38;47.95;100463.72;3164435;28;20366;-64
2023/10/05 04:02:04;;;;;;;;;;;;;;;15.38;48.16;100465.47;3166320;28;20065;-65
2023/10/05 04:03:35;;;;;;;;;;;;;;;15.37;48.08;100466.41;3160351;28;20036;-70
2023/10/05 04:05:09;;;;;;;;;;;;;;;15.29;48.26;100460.72;3164012;28;19927;-66
2023/10/05 04:06:41;;;;;;;;;;;;;;;15.33;48.07;100472.75;3158321;28;19928;-67
2023/10/05 04:08:16;;;;;;;;;;;;;;;15.30;48.37;100472.94;3166346;28;19931;-66
2023/10/05 04:09:48;;;;;;;;;;;;;;;15.23;48.56;100469.75;3166421;28;19927;-66
2023/10/05 04:11:21;;;;;;;;;;;;;;;15.17;48.73;100463.09;3165628;28;20018;-66
2023/10/05 04:12:53;;;;;;;;;;;;;;;15.11;48.67;100471.25;3156017;28;20387;-75
2023/10/05 04:14:28;;;;;;;;;;;;;;;15.02;49.09;100469.13;3171073;28;20025;-73
2023/10/05 04:15:59;;;;;;;;;;;;;;;14.98;48.98;100470.22;3168576;28;20049;-79
2023/10/05 04:17:30;;;;;;;;;;;;;;;14.90;49.27;100473.25;3166051;28;19949;-73
2023/10/05 04:19:04;;;;;;;;;;;;;;;14.83;49.64;100478.91;3165495;28;20389;-69
2023/10/05 04:20:40;;;;;;;;;;;;;;;14.78;49.93;100482.59;3166120;28;20428;-69
2023/10/05 04:22:15;;;;;;;;;;;;;;;14.77;49.84;100486.16;3156521;28;19928;-71
2023/10/05 04:23:49;;;;;;;;;;;;;;;14.77;49.70;100486.16;3162542;28;19950;-70
2023/10/05 04:25:21;;;;;;;;;;;;;;;14.75;49.95;100493.25;3156862;28;20279;-72
2023/10/05 04:26:52;;;;;;;;;;;;;;;14.75;49.70;100495.03;3155233;28;19956;-72
2023/10/05 04:28:31;;;;;;;;;;;;;;;14.78;49.49;100485.22;3155026;28;20638;-70
2023/10/05 04:30:05;;;;;;;;;;;;;;;14.82;49.62;100491.19;3165496;28;19950;-70
2023/10/05 04:31:36;;;;;;;;;;;;;;;14.85;49.33;100491.00;3165574;28;20397;-70
2023/10/05 04:33:09;;;;;;;;;;;;;;;14.85;49.42;100491.00;3166037;28;20040;-68
2023/10/05 04:34:41;;;;;;;;;;;;;;;14.77;49.86;100480.91;3165761;28;19940;-64
2023/10/05 04:36:13;;;;;;;;;;;;;;;14.66;50.12;100485.00;3165703;28;19935;-66
2023/10/05 04:37:43;;;;;;;;;;;;;;;14.55;50.70;100488.16;3165909;28;20362;-66
2023/10/05 04:39:21;;;;;;;;;;;;;;;14.44;51.14;100483.44;3165506;28;19996;-68
2023/10/05 04:40:52;;;;;;;;;;;;;;;14.34;51.45;100476.97;3163624;28;20307;-67
2023/10/05 04:42:23;;;;;;;;;;;;;;;14.25;51.66;100482.66;3158141;28;20056;-66
2023/10/05 04:43:54;;;;;;;;;;;;;;;14.15;52.26;100484.06;3165586;28;19928;-65
2023/10/05 04:45:28;;;;;;;;;;;;;;;14.10;52.00;100481.66;3165139;28;19980;-66
2023/10/05 04:46:58;;;;;;;;;;;;;;;14.11;52.12;100480.75;3165675;28;20065;-68
2023/10/05 04:48:31;;;;;;;;;;;;;;;14.14;51.99;100485.81;3156336;28;19927;-70
2023/10/05 04:50:05;;;;;;;;;;;;;;;14.19;52.04;100481.19;3163840;28;19944;-69
2023/10/05 04:51:38;;;;;;;;;;;;;;;14.27;51.64;100488.69;3159384;28;19971;-68
2023/10/05 04:53:11;;;;;;;;;;;;;;;14.32;51.46;100482.28;3165519;28;19927;-69
2023/10/05 04:54:43;;;;;;;;;;;;;;;14.41;51.21;100480.16;3165349;28;19946;-69
2023/10/05 04:56:22;;;;;;;;;;;;;;;14.48;51.01;100484.97;3164064;28;19934;-68
2023/10/05 04:57:55;;;;;;;;;;;;;;;14.54;50.82;100486.47;3156670;28;19966;-73
2023/10/05 04:59:37;;;;;;;;;;;;;;;14.56;50.75;100485.47;3155856;28;19928;-68
2023/10/05 05:01:28;;;;;;;;;;;;;;;14.52;50.93;100486.56;3159089;28;19928;-64
2023/10/05 05:03:05;;;;;;;;;;;;;;;14.48;50.96;100484.97;3165551;28;19988;-67
2023/10/05 05:04:52;;;;;;;;;;;;;;;14.48;50.76;100492.00;3154345;28;20532;-66
2023/10/05 05:06:25;;;;;;;;;;;;;;;14.44;51.13;100487.84;3161195;28;19958;-66
2023/10/05 05:08:01;;;;;;;;;;;;;;;14.40;51.57;100489.75;3165849;28;19939;-66
2023/10/05 05:09:34;;;;;;;;;;;;;;;14.39;51.39;100488.06;3165347;28;19935;-67
2023/10/05 05:11:08;;;;;;;;;;;;;;;14.41;51.44;100490.63;3164425;28;20415;-67
2023/10/05 05:12:40;;;;;;;;;;;;;;;14.43;51.19;100492.22;3164962;28;19928;-66
2023/10/05 05:14:12;;;;;;;;;;;;;;;14.46;51.08;100483.38;3165617;28;19946;-66
2023/10/05 05:15:45;;;;;;;;;;;;;;;14.51;51.06;100484.84;3164949;28;19935;-65
2023/10/05 05:17:19;;;;;;;;;;;;;;;14.57;51.05;100489.78;3165046;28;20006;-66
2023/10/05 05:18:50;;;;;;;;;;;;;;;14.62;50.62;100489.56;3165016;28;19976;-66
2023/10/05 05:20:22;;;;;;;;;;;;;;;14.62;50.71;100478.25;3165310;28;20401;-67
2023/10/05 05:21:52;;;;;;;;;;;;;;;14.69;50.51;100488.31;3165159;28;19939;-67
2023/10/05 05:23:24;;;;;;;;;;;;;;;14.75;50.20;100487.16;3164609;28;20024;-65
2023/10/05 05:24:55;;;;;;;;;;;;;;;14.81;50.44;100484.22;3160540;28;19934;-66
2023/10/05 05:26:27;;;;;;;;;;;;;;;14.90;50.09;100488.13;3154996;28;19928;-66
2023/10/05 05:28:01;;;;;;;;;;;;;;;14.96;50.12;100490.44;3160599;28;20275;-66
2023/10/05 05:29:32;;;;;;;;;;;;;;;15.05;49.64;100489.94;3158822;28;19990;-66
2023/10/05 05:31:06;;;;;;;;;;;;;;;15.12;49.46;100488.72;3164818;28;19932;-67
2023/10/05 05:32:39;;;;;;;;;;;;;;;15.19;49.36;100492.69;3158730;28;19928;-68
2023/10/05 05:34:11;;;;;;;;;;;;;;;15.25;49.30;100495.00;3158689;28;19935;-69
2023/10/05 05:35:42;;;;;;;;;;;;;;;15.32;49.35;100498.16;3165024;28;20391;-67
2023/10/05 05:37:18;;;;;;;;;;;;;;;15.37;49.31;100503.97;3158245;28;20707;-67
2023/10/05 05:38:50;;;;;;;;;;;;;;;15.38;49.30;100499.56;3158877;28;19932;-67
2023/10/05 05:40:28;;;;;;;;;;;;;;;15.37;49.45;100498.72;3169259;28;20016;-66
2023/10/05 05:41:59;;;;;;;;;;;;;;;15.36;49.54;100501.47;3164159;28;20043;-68
2023/10/05 05:43:33;;;;;;;;;;;;;;;15.33;49.84;100499.00;3167001;28;20392;-68
2023/10/05 05:45:08;;;;;;;;;;;;;;;15.28;49.98;100498.38;3163890;28;19934;-67
2023/10/05 05:46:43;;;;;;;;;;;;;;;15.25;50.09;100500.25;3162125;28;20438;-67
2023/10/05 05:48:16;;;;;;;;;;;;;;;15.27;49.95;100497.53;3170829;28;19932;-68
2023/10/05 05:49:47;;;;;;;;;;;;;;;15.34;50.07;100505.94;3170559;28;19928;-68
2023/10/05 05:51:21;;;;;;;;;;;;;;;15.37;49.89;100503.13;3170040;28;19934;-67
2023/10/05 05:52:56;;;;;;;;;;;;;;;15.39;49.83;100509.16;3166893;28;19924;-68
2023/10/05 05:54:30;;;;;;;;;;;;;;;15.46;49.73;100516.59;3167311;28;19928;-66
2023/10/05 05:56:03;;;;;;;;;;;;;;;15.54;49.64;100518.00;3162277;28;19924;-66
2023/10/05 05:57:34;;;;;;;;;;;;;;;15.59;49.47;100522.06;3168992;28;20023;-65
2023/10/05 05:59:06;;;;;;;;;;;;;;;15.65;49.29;100519.09;3159611;28;19946;-66
2023/10/05 06:00:38;;;;;;;;;;;;;;;15.73;49.29;100528.34;3162543;28;19934;-66
2023/10/05 06:02:08;;;;;;;;;;;;;;;15.83;49.12;100526.94;3170557;28;19932;-66
2023/10/05 06:03:42;;;;;;;;;;;;;;;15.90;49.16;100530.91;3170003;28;20010;-66
2023/10/05 06:05:14;;;;;;;;;;;;;;;15.93;49.10;100530.72;3166977;28;20064;-67
2023/10/05 06:06:48;;;;;;;;;;;;;;;15.94;48.93;100535.03;3168191;28;19970;-67
2023/10/05 06:08:20;;;;;;;;;;;;;;;15.92;49.33;100531.66;3170166;28;19981;-67
2023/10/05 06:09:52;;;;;;;;;;;;;;;15.95;49.04;100538.53;3169756;28;19924;-67
2023/10/05 06:11:24;;;;;;;;;;;;;;;15.98;49.02;100533.94;3169691;28;20004;-67
2023/10/05 06:12:55;;;;;;;;;;;;;;;16.02;48.83;100540.72;3169548;28;19980;-67
2023/10/05 06:14:27;;;;;;;;;;;;;;;16.05;48.94;100537.91;3167271;28;19927;-69
2023/10/05 06:15:58;;;;;;;;;;;;;;;16.11;49.03;100540.19;3163342;28;19928;-68
2023/10/05 06:17:29;;;;;;;;;;;;;;;16.22;48.74;100552.75;3169545;28;19931;-70
2023/10/05 06:19:02;;;;;;;;;;;;;;;16.33;48.58;100542.47;3159156;28;19924;-69
2023/10/05 06:20:33;;;;;;;;;;;;;;;16.43;48.49;100544.56;3166513;28;20014;-68
2023/10/05 06:22:06;;;;;;;;;;;;;;;16.66;48.50;100551.97;3159585;28;19924;-68
2023/10/05 06:23:37;;;;;;;;;;;;;;;16.80;48.57;100556.44;3163885;28;19927;-69
2023/10/05 06:25:09;;;;;;;;;;;;;;;16.94;48.36;100553.84;3169826;28;20068;-68
2023/10/05 06:26:45;;;;;;;;;;;;;;;17.07;48.52;100553.97;3166846;28;20500;-69
2023/10/05 06:28:15;;;;;;;;;;;;;;;17.13;48.06;100556.22;3165661;28;19924;-65
2023/10/05 06:29:49;;;;;;;;;;;;;;;17.30;48.28;100560.44;3164357;28;19988;-65
2023/10/05 06:31:20;;;;;;;;;;;;;;;17.58;48.03;100562.25;3166857;28;20392;-65
2023/10/05 06:32:54;;;;;;;;;;;;;;;17.83;47.75;100566.84;3169662;28;19930;-69
2023/10/05 06:34:27;;;;;;;;;;;;;;;18.02;47.52;100565.69;3169886;28;20448;-66
2023/10/05 06:35:57;;;;;;;;;;;;;;;18.16;47.35;100568.25;3169660;28;19928;-67
2023/10/05 06:37:29;;;;;;;;;;;;;;;18.33;47.14;100561.91;3168304;28;19934;-68
2023/10/05 06:39:01;;;;;;;;;;;;;;;18.41;47.01;100565.72;3165719;28;20034;-66
2023/10/05 06:40:33;;;;;;;;;;;;;;;18.52;46.94;100572.94;3169720;28;19931;-67
2023/10/05 06:42:06;;;;;;;;;;;;;;;18.54;46.67;100573.66;3163631;28;20065;-65
2023/10/05 06:43:38;;;;;;;;;;;;;;;18.45;46.64;100576.06;3169936;28;19928;-65
2023/10/05 06:45:12;;;;;;;;;;;;;;;18.47;46.76;100571.56;3163158;28;19924;-65
2023/10/05 06:46:43;;;;;;;;;;;;;;;18.61;46.86;100577.59;3161358;28;19967;-62
2023/10/05 06:48:14;;;;;;;;;;;;;;;18.80;46.92;100571.13;3170006;28;20316;-62
2023/10/05 06:49:47;;;;;;;;;;;;;;;19.09;46.62;100571.78;3170101;28;19931;-63
2023/10/05 06:51:22;;;;;;;;;;;;;;;19.38;46.07;100567.16;3169718;28;20404;-64
2023/10/05 06:52:54;;;;;;;;;;;;;;;19.54;45.47;100569.53;3170076;28;19932;-64
2023/10/05 06:54:26;;;;;;;;;;;;;;;19.68;45.33;100566.81;3169490;28;20553;-64
2023/10/05 06:55:57;;;;;;;;;;;;;;;19.88;45.05;100564.56;3170122;28;19986;-63
2023/10/05 06:57:29;;;;;;;;;;;;;;;20.15;44.71;100567.84;3170021;28;19928;-63
2023/10/05 06:59:01;;;;;;;;;;;;;;;20.27;44.07;100566.09;3157325;28;19947;-64
2023/10/05 07:00:32;;;;;;;;;;;;;;;20.29;43.65;100560.69;3168627;28;19971;-65
2023/10/05 07:02:04;;;;;;;;;;;;;;;20.32;43.58;100563.09;3162927;28;19928;-63
2023/10/05 07:03:36;;;;;;;;;;;;;;;20.67;43.74;100563.16;3162396;28;19924;-63
2023/10/05 07:05:09;;;;;;;;;;;;;;;21.11;43.24;100559.75;3165340;28;19928;-63
2023/10/05 07:06:41;;;;;;;;;;;;;;;21.29;42.70;100559.28;3162949;28;19928;-64
2023/10/05 07:08:14;;;;;;;;;;;;;;;21.61;42.32;100563.91;3165891;28;20054;-64
2023/10/05 07:09:45;;;;;;;;;;;;;;;21.92;42.08;100567.63;3165088;28;19973;-63
2023/10/05 07:11:16;;;;;;;;;;;;;;;22.23;41.59;100564.16;3165745;28;20018;-63
2023/10/05 07:12:48;;;;;;;;;;;;;;;22.62;41.06;100561.00;3169334;28;19934;-62
2023/10/05 07:14:19;;;;;;;;;;;;;;;22.80;40.66;100563.91;3169560;28;19923;-61
2023/10/05 07:15:51;;;;;;;;;;;;;;;22.95;40.15;100557.34;3162266;28;19924;-64
2023/10/05 07:17:26;;;;;;;;;;;;;;;23.09;39.80;100558.81;3169017;28;20001;-64
2023/10/05 07:18:57;;;;;;;;;;;;;;;23.26;39.63;100558.22;3169590;28;20428;-64
2023/10/05 07:20:30;;;;;;;;;;;;;;;23.39;39.06;100553.50;3161611;28;19932;-63
2023/10/05 07:22:02;;;;;;;;;;;;;;;23.51;39.27;100554.25;3162535;28;20385;-63
2023/10/05 07:23:32;;;;;;;;;;;;;;;23.60;38.84;100548.16;3169930;28;19949;-63
2023/10/05 07:25:05;;;;;;;;;;;;;;;23.58;38.66;100554.59;3169228;28;19983;-63
2023/10/05 07:26:38;;;;;;;;;;;;;;;23.70;38.40;100545.53;3160367;28;19932;-63
2023/10/05 07:28:14;;;;;;;;;;;;;;;23.92;38.49;100546.28;3167405;28;19953;-64
2023/10/05 07:29:45;;;;;;;;;;;;;;;23.99;37.69;100547.44;3167588;28;19980;-64
2023/10/05 07:31:17;;;;;;;;;;;;;;;24.14;38.23;100545.22;3167109;28;19924;-66
2023/10/05 07:32:49;;;;;;;;;;;;;;;24.29;37.56;100542.00;3164599;28;20001;-68
2023/10/05 07:34:20;;;;;;;;;;;;;;;24.28;37.45;100550.09;3166774;28;20352;-67
2023/10/05 07:35:53;;;;;;;;;;;;;;;24.20;37.64;100542.84;3164416;28;19928;-65
2023/10/05 07:37:24;;;;;;;;;;;;;;;24.27;37.94;100545.78;3162811;28;20369;-65
2023/10/05 07:38:57;;;;;;;;;;;;;;;24.62;37.77;100542.56;3171490;28;19932;-65
2023/10/05 07:40:27;;;;;;;;;;;;;;;24.88;37.15;100545.47;3171704;28;19996;-69
2023/10/05 07:42:00;;;;;;;;;;;;;;;25.14;37.05;100545.72;3171649;28;19990;-66
2023/10/05 07:43:32;;;;;;;;;;;;;;;25.51;36.46;100536.88;3169664;28;20014;-67
2023/10/05 07:45:06;;;;;;;;;;;;;;;25.84;36.21;100545.28;3182177;27;19935;-66
2023/10/05 07:46:38;;;;;;;;;;;;;;;25.99;35.97;100538.44;3171136;28;19928;-62
2023/10/05 07:48:10;;;;;;;;;;;;;;;26.06;35.40;100546.69;3171720;28;19924;-64
2023/10/05 07:49:45;;;;;;;;;;;;;;;26.19;35.48;100543.63;3171231;28;19924;-67
2023/10/05 07:51:18;;;;;;;;;;;;;;;26.51;35.46;100532.44;3162822;27;19932;-69
2023/10/05 07:52:48;;;;;;;;;;;;;;;26.66;34.92;100538.06;3160651;28;20221;-69
2023/10/05 07:54:21;;;;;;;;;;;;;;;26.60;34.29;100534.19;3163201;27;20068;-67
2023/10/05 07:55:52;;;;;;;;;;;;;;;26.55;34.78;100533.81;3165591;28;20431;-66
2023/10/05 07:57:23;;;;;;;;;;;;;;;26.56;34.53;100532.78;3167261;28;19928;-66